Time;durP1;ratioP1;P1;durP2;ratioP2;P2;SDS_P1;SDS_P2;PMS_P1;PMS_P2;Temp;Humidity;BMP_temperature;BMP_pressure;BME280_temperature;BME280_humidity;BME280_pressure;Samples;Min_cycle;Max_cycle;Signal;HPM_P1;HPM_P2
2023/09/09 00:02:07;;;;;;;11.60;10.15;;;18.70;88.10;;;;;;5016404;28;20380;-54
2023/09/09 00:04:54;;;;;;;11.17;10.07;;;18.70;88.30;;;;;;5016479;28;20060;-51
2023/09/09 00:07:23;;;;;;;11.65;9.85;;;18.60;88.30;;;;;;5045601;28;20337;-51
2023/09/09 00:09:52;;;;;;;11.90;10.30;;;18.60;88.40;;;;;;5054340;28;20458;-51
2023/09/09 00:12:19;;;;;;;11.52;10.43;;;18.60;88.40;;;;;;5036338;28;20543;-49
2023/09/09 00:14:49;;;;;;;11.30;10.20;;;18.60;88.40;;;;;;5051927;28;20373;-50
2023/09/09 00:17:18;;;;;;;10.25;9.25;;;18.60;88.40;;;;;;5034201;28;20370;-51
2023/09/09 00:19:49;;;;;;;11.98;10.48;;;18.60;88.50;;;;;;5033651;28;20037;-51
2023/09/09 00:22:19;;;;;;;12.25;11.05;;;18.50;88.50;;;;;;5033681;28;20045;-48
2023/09/09 00:24:45;;;;;;;;;;;18.50;88.50;;;;;;5038228;28;20498;-50
2023/09/09 00:27:11;;;;;;;13.05;11.68;;;18.50;88.70;;;;;;5033418;28;20003;-52
2023/09/09 00:29:37;;;;;;;13.63;11.90;;;18.50;88.60;;;;;;5049218;28;20026;-49
2023/09/09 00:32:04;;;;;;;11.68;10.50;;;18.50;88.50;;;;;;5043883;28;20262;-51
2023/09/09 00:34:33;;;;;;;13.50;12.07;;;18.50;88.50;;;;;;5033585;28;20053;-52
2023/09/09 00:37:07;;;;;;;12.70;11.50;;;18.50;88.60;;;;;;5033646;28;20025;-51
2023/09/09 00:39:41;;;;;;;12.75;11.55;;;18.50;88.50;;;;;;5033677;28;20030;-50
2023/09/09 00:42:10;;;;;;;12.93;11.63;;;18.50;88.50;;;;;;5033061;28;20887;-51
2023/09/09 00:44:45;;;;;;;12.33;11.13;;;18.40;88.40;;;;;;5020354;28;20041;-51
2023/09/09 00:47:24;;;;;;;14.18;12.77;;;18.40;88.50;;;;;;5033422;28;20037;-49
2023/09/09 00:50:13;;;;;;;14.23;11.25;;;18.50;88.50;;;;;;5018566;28;20522;-51
2023/09/09 00:52:42;;;;;;;13.02;11.05;;;18.50;88.40;;;;;;5031429;28;20045;-50
2023/09/09 00:55:14;;;;;;;14.27;11.75;;;18.50;88.40;;;;;;5032569;28;20033;-50
2023/09/09 00:57:47;;;;;;;11.98;10.77;;;18.50;88.40;;;;;;5017422;28;20021;-52
2023/09/09 01:00:27;;;;;;;12.75;11.48;;;18.50;88.30;;;;;;5050903;28;20122;-51
2023/09/09 01:02:54;;;;;;;12.07;10.82;;;18.40;88.20;;;;;;5033209;28;20063;-51
2023/09/09 01:05:23;;;;;;;11.85;10.75;;;18.50;88.10;;;;;;5033053;28;20029;-49
2023/09/09 01:07:57;;;;;;;11.23;10.13;;;18.50;88.00;;;;;;5033070;28;20049;-53
2023/09/09 01:10:29;;;;;;;11.98;10.73;;;18.50;88.00;;;;;;5032990;28;20030;-54
2023/09/09 01:12:56;;;;;;;11.90;10.73;;;18.40;88.00;;;;;;5033325;28;20025;-48
2023/09/09 01:15:23;;;;;;;12.15;10.90;;;18.40;87.90;;;;;;5022172;28;20018;-50
2023/09/09 01:17:53;;;;;;;11.30;10.20;;;18.40;87.90;;;;;;5033603;28;20045;-50
2023/09/09 01:20:26;;;;;;;11.10;9.98;;;18.40;87.90;;;;;;5032825;28;20038;-51
2023/09/09 01:22:52;;;;;;;11.45;9.55;;;18.40;87.80;;;;;;5044709;28;20045;-51
2023/09/09 01:25:18;;;;;;;10.73;9.65;;;18.40;87.80;;;;;;5035236;28;20103;-50
2023/09/09 01:27:47;;;;;;;11.90;10.68;;;18.40;87.80;;;;;;5053014;28;20044;-51
2023/09/09 01:30:19;;;;;;;10.75;9.70;;;18.40;87.70;;;;;;5047530;28;20043;-50
2023/09/09 01:32:49;;;;;;;11.13;9.98;;;18.30;87.60;;;;;;5052192;28;20025;-52
2023/09/09 01:35:16;;;;;;;;;;;18.30;87.60;;;;;;5052740;28;20025;-50
2023/09/09 01:37:45;;;;;;;10.32;9.32;;;18.30;87.60;;;;;;5044473;28;19909;-53
2023/09/09 01:40:14;;;;;;;13.18;11.90;;;18.20;87.70;;;;;;5032553;28;20029;-51
2023/09/09 01:42:47;;;;;;;11.35;10.07;;;18.20;87.80;;;;;;5049280;28;20072;-51
2023/09/09 01:45:22;;;;;;;12.68;11.40;;;18.20;87.80;;;;;;5052440;28;20025;-48
2023/09/09 01:47:55;;;;;;;12.10;10.90;;;18.20;87.70;;;;;;5052179;28;20474;-52
2023/09/09 01:50:22;;;;;;;13.18;10.45;;;18.10;87.80;;;;;;5042242;28;20185;-50
2023/09/09 01:52:50;;;;;;;11.18;10.07;;;18.10;87.80;;;;;;5030834;28;20419;-53
2023/09/09 01:55:21;;;;;;;13.18;11.88;;;18.00;87.90;;;;;;5041801;28;20080;-49
2023/09/09 01:57:50;;;;;;;12.93;11.70;;;18.10;88.00;;;;;;5052229;28;20033;-49
2023/09/09 02:00:23;;;;;;;13.73;12.25;;;18.00;88.00;;;;;;5039453;28;20538;-50
2023/09/09 02:02:53;;;;;;;14.00;12.60;;;18.00;88.10;;;;;;5032248;28;20049;-48
2023/09/09 02:05:24;;;;;;;15.18;13.60;;;18.10;88.00;;;;;;5032454;28;20033;-48
2023/09/09 02:07:52;;;;;;;16.00;14.38;;;18.10;87.90;;;;;;5038512;28;20051;-54
2023/09/09 02:10:20;;;;;;;15.98;14.48;;;18.00;87.90;;;;;;4998145;28;20340;-49
2023/09/09 02:12:51;;;;;;;16.27;14.68;;;18.10;87.90;;;;;;5032304;28;20033;-50
2023/09/09 02:15:21;;;;;;;17.95;15.45;;;18.10;87.90;;;;;;5014478;28;20443;-51
2023/09/09 02:17:51;;;;;;;14.35;12.93;;;18.00;87.80;;;;;;5032075;28;20040;-51
2023/09/09 02:20:18;;;;;;;15.82;14.43;;;18.00;87.80;;;;;;5042746;28;20025;-54
2023/09/09 02:22:47;;;;;;;16.88;15.18;;;18.00;87.80;;;;;;5038160;28;20350;-50
2023/09/09 02:25:16;;;;;;;18.48;16.67;;;18.00;87.80;;;;;;5051903;28;20075;-48
2023/09/09 02:27:53;;;;;;;;;;;;;;;;;;;;;
2023/09/09 02:30:23;;;;;;;18.48;16.75;;;17.90;87.80;;;;;;5059123;28;20036;-48
2023/09/09 02:32:50;;;;;;;21.58;17.65;;;17.90;87.90;;;;;;5044702;28;20029;-48
2023/09/09 02:35:17;;;;;;;21.13;18.90;;;17.90;87.90;;;;;;5030731;28;20029;-48
2023/09/09 02:37:43;;;;;;;21.48;18.15;;;17.90;87.90;;;;;;5033219;28;20025;-48
2023/09/09 02:40:13;;;;;;;17.83;16.08;;;17.80;88.00;;;;;;5042202;28;20048;-49
2023/09/09 02:42:41;;;;;;;19.80;17.67;;;17.80;88.00;;;;;;5052453;28;20045;-50
2023/09/09 02:45:08;;;;;;;19.42;17.05;;;17.80;88.00;;;;;;5063335;28;20041;-48
2023/09/09 02:47:43;;;;;;;20.65;18.45;;;17.80;88.10;;;;;;5068621;28;20025;-51
2023/09/09 02:50:14;;;;;;;19.75;17.95;;;17.70;88.20;;;;;;5052238;28;20159;-48
2023/09/09 02:52:41;;;;;;;20.20;18.10;;;17.70;88.20;;;;;;5043500;28;20416;-50
2023/09/09 02:55:09;;;;;;;18.55;16.73;;;17.70;88.30;;;;;;5034401;28;20036;-49
2023/09/09 02:57:39;;;;;;;16.27;14.68;;;17.70;88.30;;;;;;5068913;28;20032;-52
2023/09/09 03:00:13;;;;;;;;;;;17.70;88.30;;;;;;5034819;28;20041;-53
2023/09/09 03:02:42;;;;;;;19.30;17.50;;;17.70;88.40;;;;;;5063839;28;20309;-53
2023/09/09 03:05:09;;;;;;;18.83;17.05;;;17.70;88.30;;;;;;5059452;28;20025;-51
2023/09/09 03:07:41;;;;;;;18.45;16.58;;;17.60;88.40;;;;;;5064019;28;20445;-48
2023/09/09 03:10:29;;;;;;;19.30;17.30;;;17.70;88.40;;;;;;5050953;28;20442;-49
2023/09/09 03:12:56;;;;;;;18.38;16.58;;;17.60;88.40;;;;;;5031015;28;20120;-50
2023/09/09 03:15:30;;;;;;;19.08;17.30;;;17.60;88.40;;;;;;5034605;28;20037;-50
2023/09/09 03:18:03;;;;;;;17.70;15.98;;;17.60;88.40;;;;;;5045916;28;20041;-49
2023/09/09 03:20:29;;;;;;;17.20;15.60;;;17.60;88.40;;;;;;5059698;28;20449;-48
2023/09/09 03:22:58;;;;;;;17.88;16.27;;;17.60;88.40;;;;;;5072264;28;20055;-47
2023/09/09 03:25:27;;;;;;;20.35;18.45;;;17.50;88.40;;;;;;5072715;28;20100;-49
2023/09/09 03:27:53;;;;;;;20.48;18.52;;;17.50;88.40;;;;;;5049088;28;20107;-47
2023/09/09 03:30:23;;;;;;;20.20;18.30;;;17.50;88.50;;;;;;5067592;28;20036;-50
2023/09/09 03:32:49;;;;;;;19.63;17.63;;;17.40;88.50;;;;;;5047499;28;20053;-47
2023/09/09 03:35:20;;;;;;;19.42;17.58;;;17.40;88.70;;;;;;5038247;28;20114;-47
2023/09/09 03:37:46;;;;;;;21.75;19.70;;;17.40;88.70;;;;;;5044290;28;20036;-48
2023/09/09 03:40:13;;;;;;;20.40;18.40;;;17.40;88.70;;;;;;5067630;28;20079;-48
2023/09/09 03:42:39;;;;;;;21.27;19.08;;;17.40;88.70;;;;;;5067342;28;20086;-47
2023/09/09 03:45:06;;;;;;;20.42;18.58;;;17.40;88.90;;;;;;5049474;28;20024;-47
2023/09/09 03:47:36;;;;;;;20.08;18.13;;;17.40;88.90;;;;;;5036581;28;20033;-47
2023/09/09 03:50:08;;;;;;;21.33;19.17;;;17.40;88.90;;;;;;5050243;28;20041;-46
2023/09/09 03:52:38;;;;;;;20.63;18.73;;;17.40;89.00;;;;;;5048956;28;20117;-47
2023/09/09 03:55:05;;;;;;;20.33;18.33;;;17.40;88.90;;;;;;5053720;28;20021;-47
2023/09/09 03:57:34;;;;;;;20.52;18.63;;;17.40;89.00;;;;;;5040948;28;20082;-49
2023/09/09 04:00:05;;;;;;;19.30;17.60;;;17.40;89.00;;;;;;5015250;28;20088;-47
2023/09/09 04:02:32;;;;;;;21.15;18.70;;;17.40;89.00;;;;;;5060104;28;20090;-49
2023/09/09 04:05:08;;;;;;;19.75;17.85;;;17.40;89.00;;;;;;5048633;28;20033;-46
2023/09/09 04:07:35;;;;;;;21.52;19.52;;;17.40;89.00;;;;;;5038172;28;20083;-46
2023/09/09 04:10:03;;;;;;;20.63;18.83;;;17.40;89.10;;;;;;5053544;28;20380;-47
2023/09/09 04:12:33;;;;;;;20.85;18.85;;;17.40;89.10;;;;;;5032540;28;20025;-51
2023/09/09 04:15:02;;;;;;;19.48;17.63;;;17.40;89.10;;;;;;5034844;28;20111;-50
2023/09/09 04:17:31;;;;;;;21.13;19.23;;;17.40;89.00;;;;;;5032107;28;20021;-49
2023/09/09 04:19:58;;;;;;;19.65;17.83;;;17.40;89.00;;;;;;5033720;28;20580;-48
2023/09/09 04:22:30;;;;;;;20.38;18.58;;;17.40;89.00;;;;;;5031499;28;20081;-48
2023/09/09 04:24:57;;;;;;;20.33;18.45;;;17.40;89.00;;;;;;5050802;28;20504;-53
2023/09/09 04:27:26;;;;;;;21.52;19.33;;;17.40;89.10;;;;;;5047154;28;20038;-48
2023/09/09 04:29:52;;;;;;;20.92;18.88;;;17.40;89.10;;;;;;5050624;28;20094;-46
2023/09/09 04:32:18;;;;;;;22.95;20.73;;;17.40;89.10;;;;;;5056354;28;20032;-51
2023/09/09 04:34:45;;;;;;;19.58;17.75;;;17.40;89.10;;;;;;5073994;28;20028;-49
2023/09/09 04:37:17;;;;;;;20.63;18.52;;;17.40;89.10;;;;;;5068283;28;20057;-50
2023/09/09 04:39:50;;;;;;;23.35;21.05;;;17.30;89.10;;;;;;5068687;28;20044;-47
2023/09/09 04:42:21;;;;;;;20.25;18.25;;;17.30;89.10;;;;;;5056964;28;20482;-46
2023/09/09 04:44:47;;;;;;;21.15;19.20;;;17.30;89.10;;;;;;5073002;28;20032;-48
2023/09/09 04:47:13;;;;;;;21.90;20.00;;;17.30;89.20;;;;;;5054747;28;20055;-50
2023/09/09 04:49:42;;;;;;;23.63;21.17;;;17.30;89.20;;;;;;5048700;28;20028;-53
2023/09/09 04:52:09;;;;;;;21.00;18.98;;;17.30;89.30;;;;;;5051899;28;20037;-47
2023/09/09 04:54:35;;;;;;;20.88;19.08;;;17.30;89.30;;;;;;5050973;28;20414;-49
2023/09/09 04:57:05;;;;;;;21.75;19.75;;;17.30;89.30;;;;;;5050773;28;20048;-50
2023/09/09 04:59:31;;;;;;;20.80;18.90;;;17.30;89.30;;;;;;5048299;28;20408;-47
2023/09/09 05:02:00;;;;;;;22.23;20.05;;;17.30;89.30;;;;;;5051791;28;20378;-50
2023/09/09 05:04:26;;;;;;;;;;;17.30;89.30;;;;;;5034989;28;20029;-46
2023/09/09 05:07:00;;;;;;;21.58;19.55;;;17.20;89.40;;;;;;5051656;28;19909;-50
2023/09/09 05:09:32;;;;;;;22.58;20.42;;;17.30;89.40;;;;;;5051815;28;20127;-51
2023/09/09 05:12:06;;;;;;;22.75;20.33;;;17.20;89.40;;;;;;5061691;28;20021;-48
2023/09/09 05:14:35;;;;;;;21.27;19.33;;;17.20;89.30;;;;;;5058093;28;20107;-50
2023/09/09 05:17:06;;;;;;;20.92;18.92;;;17.30;89.40;;;;;;5070620;28;20029;-49
2023/09/09 05:19:33;;;;;;;21.08;19.08;;;17.30;89.40;;;;;;5056424;28;20558;-51
2023/09/09 05:22:08;;;;;;;21.30;19.33;;;17.30;89.40;;;;;;5073087;28;20153;-48
2023/09/09 05:24:43;;;;;;;21.30;19.45;;;17.40;89.40;;;;;;5060446;28;20024;-48
2023/09/09 05:27:10;;;;;;;19.92;18.05;;;17.30;89.40;;;;;;5051268;28;20029;-46
2023/09/09 05:29:44;;;;;;;19.73;17.77;;;17.40;89.40;;;;;;5030696;28;20033;-50
2023/09/09 05:32:13;;;;;;;21.13;18.98;;;17.40;89.40;;;;;;5049988;28;20459;-49
2023/09/09 05:34:41;;;;;;;21.17;19.30;;;17.40;89.40;;;;;;5031274;28;20434;-46
2023/09/09 05:37:11;;;;;;;19.23;17.30;;;17.40;89.40;;;;;;5051573;28;20029;-51
2023/09/09 05:39:38;;;;;;;21.77;19.77;;;17.40;89.40;;;;;;5047445;28;20466;-49
2023/09/09 05:42:07;;;;;;;20.00;18.10;;;17.40;89.40;;;;;;5029329;28;20115;-48
2023/09/09 05:44:37;;;;;;;20.23;18.35;;;17.40;89.40;;;;;;5031639;28;20056;-48
2023/09/09 05:47:08;;;;;;;20.30;18.52;;;17.40;89.40;;;;;;5049728;28;20523;-48
2023/09/09 05:49:35;;;;;;;22.17;20.15;;;17.50;89.40;;;;;;5051982;28;20031;-52
2023/09/09 05:52:06;;;;;;;21.40;19.40;;;17.50;89.50;;;;;;5052092;28;20033;-51
2023/09/09 05:54:38;;;;;;;21.75;19.75;;;17.60;89.40;;;;;;5045643;28;20438;-50
2023/09/09 05:57:08;;;;;;;19.88;18.08;;;17.60;89.50;;;;;;5049373;28;20037;-49
2023/09/09 05:59:39;;;;;;;23.63;21.52;;;17.60;89.40;;;;;;5047025;28;20186;-47
2023/09/09 06:02:08;;;;;;;20.20;18.33;;;17.60;89.40;;;;;;5042647;28;20048;-52
2023/09/09 06:04:35;;;;;;;20.27;18.27;;;17.70;89.50;;;;;;5046301;28;20104;-53
2023/09/09 06:07:02;;;;;;;20.70;18.90;;;17.70;89.40;;;;;;5052094;28;20021;-53
2023/09/09 06:09:32;;;;;;;17.45;15.88;;;17.80;89.40;;;;;;5033135;28;20020;-50
2023/09/09 06:12:01;;;;;;;20.90;18.95;;;17.80;89.50;;;;;;5048643;28;20141;-49
2023/09/09 06:14:30;;;;;;;19.00;17.05;;;17.80;89.50;;;;;;5047375;28;20099;-50
2023/09/09 06:16:56;;;;;;;19.80;17.80;;;17.90;89.60;;;;;;5037255;28;20437;-48
2023/09/09 06:19:25;;;;;;;19.08;17.08;;;17.90;89.70;;;;;;5057795;28;20025;-47
2023/09/09 06:21:57;;;;;;;22.23;20.23;;;17.90;89.70;;;;;;5058497;28;20077;-49
2023/09/09 06:24:28;;;;;;;24.98;22.58;;;18.00;89.60;;;;;;5064462;28;20026;-46
2023/09/09 06:26:58;;;;;;;23.95;21.85;;;18.10;89.50;;;;;;5063052;28;20100;-46
2023/09/09 06:30:02;;;;;;;24.67;22.38;;;18.10;89.40;;;;;;5032772;28;20021;-48
2023/09/09 06:32:34;;;;;;;25.90;23.55;;;18.20;89.20;;;;;;5050892;28;20358;-46
2023/09/09 06:35:02;;;;;;;25.63;23.23;;;18.20;89.00;;;;;;5034450;28;20021;-51
2023/09/09 06:37:31;;;;;;;25.15;22.67;;;18.30;88.80;;;;;;5051911;28;20029;-47
2023/09/09 06:40:00;;;;;;;28.60;24.25;;;18.30;88.60;;;;;;5048731;28;20108;-51
2023/09/09 06:42:34;;;;;;;27.13;24.35;;;18.40;88.50;;;;;;5053278;28;20036;-51
2023/09/09 06:45:04;;;;;;;25.45;23.00;;;18.40;88.50;;;;;;5049533;28;20079;-48
2023/09/09 06:47:36;;;;;;;25.90;23.60;;;18.50;88.40;;;;;;5042823;28;20067;-49
2023/09/09 06:50:06;;;;;;;25.95;23.52;;;18.60;88.30;;;;;;5053435;28;20365;-47
2023/09/09 06:52:45;;;;;;;26.77;22.33;;;18.60;88.20;;;;;;5052075;28;20047;-49
2023/09/09 06:55:11;;;;;;;23.02;20.92;;;18.70;88.30;;;;;;5046942;28;20025;-48
2023/09/09 06:57:40;;;;;;;23.70;21.52;;;18.80;88.30;;;;;;5038175;28;20421;-48
2023/09/09 07:00:13;;;;;;;25.55;23.17;;;18.80;88.40;;;;;;5037877;28;20033;-52
2023/09/09 07:02:40;;;;;;;26.77;24.38;;;18.90;88.40;;;;;;5044957;28;20382;-47
2023/09/09 07:05:08;;;;;;;28.10;25.52;;;18.90;88.40;;;;;;5053451;28;20021;-47
2023/09/09 07:07:34;;;;;;;25.58;23.10;;;19.00;88.30;;;;;;5068340;28;20043;-50
2023/09/09 07:10:00;;;;;;;27.17;24.58;;;19.00;88.40;;;;;;5052448;28;20041;-50
2023/09/09 07:12:30;;;;;;;25.23;23.02;;;19.10;88.40;;;;;;5053004;28;20031;-48
2023/09/09 07:14:59;;;;;;;26.27;23.77;;;19.20;88.30;;;;;;5049113;28;20025;-49
2023/09/09 07:17:25;;;;;;;25.90;23.27;;;19.30;88.30;;;;;;5049580;28;20057;-51
2023/09/09 07:19:52;;;;;;;25.73;23.42;;;19.40;88.00;;;;;;5041314;28;20063;-51
2023/09/09 07:22:21;;;;;;;24.90;22.55;;;19.40;87.90;;;;;;5055284;28;20029;-49
2023/09/09 07:24:48;;;;;;;26.88;23.77;;;19.50;87.90;;;;;;5050277;28;20029;-50
2023/09/09 07:27:17;;;;;;;25.77;23.55;;;19.60;88.10;;;;;;5048547;28;20037;-49
2023/09/09 07:29:52;;;;;;;22.92;20.80;;;19.70;88.10;;;;;;5050624;28;20577;-49
2023/09/09 07:32:19;;;;;;;24.05;21.95;;;19.80;88.20;;;;;;5054482;28;20116;-50
2023/09/09 07:34:48;;;;;;;24.20;22.05;;;19.90;88.00;;;;;;5055159;28;20029;-48
2023/09/09 07:37:16;;;;;;;20.58;18.85;;;20.10;87.90;;;;;;5033310;28;20087;-50
2023/09/09 07:39:50;;;;;;;22.33;20.40;;;20.40;87.80;;;;;;5050684;28;20136;-48
2023/09/09 07:42:18;;;;;;;20.77;18.98;;;20.70;87.20;;;;;;5046976;28;20043;-49
2023/09/09 07:44:45;;;;;;;20.67;18.88;;;21.10;86.30;;;;;;5064875;28;20064;-49
2023/09/09 07:47:14;;;;;;;21.27;19.33;;;21.50;85.60;;;;;;5057509;28;20039;-50
2023/09/09 07:49:41;;;;;;;20.33;18.38;;;21.90;83.50;;;;;;5071225;28;20029;-52
2023/09/09 07:52:08;;;;;;;19.50;17.80;;;22.10;82.80;;;;;;5040480;28;20053;-49
2023/09/09 07:54:37;;;;;;;17.13;15.35;;;22.40;82.80;;;;;;4997628;28;20041;-56
2023/09/09 07:57:09;;;;;;;17.33;15.77;;;22.80;81.50;;;;;;5020825;28;20033;-51
2023/09/09 07:59:39;;;;;;;17.58;15.88;;;23.10;81.40;;;;;;5031344;28;20466;-54
2023/09/09 08:02:08;;;;;;;15.63;14.23;;;23.40;78.80;;;;;;5015058;28;20400;-54
2023/09/09 08:04:34;;;;;;;18.45;16.50;;;23.60;78.50;;;;;;5043829;28;20017;-54
2023/09/09 08:07:02;;;;;;;18.15;16.45;;;24.00;78.30;;;;;;5022097;28;20025;-54
2023/09/09 08:09:32;;;;;;;15.88;14.48;;;24.30;75.20;;;;;;5036525;28;20051;-56
2023/09/09 08:11:59;;;;;;;16.13;14.68;;;24.40;74.70;;;;;;5023742;28;20043;-53
2023/09/09 08:14:28;;;;;;;16.73;15.23;;;24.80;74.90;;;;;;5044377;28;20026;-51
2023/09/09 08:16:55;;;;;;;14.60;13.15;;;25.00;72.20;;;;;;5023966;28;20021;-53
2023/09/09 08:19:24;;;;;;;18.10;16.40;;;25.30;72.70;;;;;;5033687;28;20347;-54
2023/09/09 08:21:56;;;;;;;17.60;15.95;;;25.30;71.80;;;;;;5041562;28;20053;-56
2023/09/09 08:24:24;;;;;;;15.95;14.27;;;25.50;71.50;;;;;;5039905;28;20690;-56
2023/09/09 08:26:57;;;;;;;15.38;13.98;;;25.80;71.70;;;;;;5029171;28;20018;-56
2023/09/09 08:29:26;;;;;;;13.60;12.10;;;26.00;70.00;;;;;;5034738;28;20036;-55
2023/09/09 08:31:56;;;;;;;12.80;11.50;;;26.20;70.40;;;;;;5021956;28;20037;-56
2023/09/09 08:34:24;;;;;;;14.13;12.65;;;26.40;70.10;;;;;;5031075;28;20038;-57
2023/09/09 08:36:50;;;;;;;11.07;10.02;;;26.50;68.00;;;;;;5028006;28;20113;-57
2023/09/09 08:39:29;;;;;;;11.00;10.02;;;26.70;69.50;;;;;;5024091;28;20263;-58
2023/09/09 08:42:31;;;;;;;13.43;12.32;;;26.80;69.10;;;;;;5012696;28;20525;-56
2023/09/09 08:45:12;;;;;;;13.30;11.90;;;27.00;69.20;;;;;;5035847;28;20080;-56
2023/09/09 08:47:39;;;;;;;14.90;13.35;;;27.10;66.70;;;;;;5036385;28;20025;-56
2023/09/09 08:50:08;;;;;;;11.13;10.07;;;27.20;67.70;;;;;;5039826;28;20037;-56
2023/09/09 08:52:38;;;;;;;12.98;11.48;;;27.40;68.20;;;;;;5066818;28;20048;-55
2023/09/09 08:55:07;;;;;;;14.98;13.52;;;27.40;66.70;;;;;;5047591;28;20040;-55
2023/09/09 08:57:40;;;;;;;13.93;12.47;;;27.40;67.60;;;;;;5046777;28;20353;-57
2023/09/09 09:00:16;;;;;;;11.90;10.90;;;27.50;67.70;;;;;;5045697;28;20292;-56
2023/09/09 09:02:48;;;;;;;12.35;11.07;;;27.60;67.40;;;;;;5043501;28;20032;-58
2023/09/09 09:05:22;;;;;;;16.95;12.65;;;27.80;66.10;;;;;;5041960;28;20052;-55
2023/09/09 09:07:53;;;;;;;13.70;9.18;;;27.90;66.10;;;;;;5041951;28;20036;-56
2023/09/09 09:10:22;;;;;;;11.63;10.52;;;28.10;67.10;;;;;;5049226;28;20612;-57
2023/09/09 09:12:57;;;;;;;12.25;10.90;;;28.20;66.00;;;;;;5038925;28;20029;-57
2023/09/09 09:15:24;;;;;;;11.52;10.32;;;28.20;64.50;;;;;;5056484;28;20037;-53
2023/09/09 09:17:55;;;;;;;11.00;8.73;;;28.30;65.00;;;;;;5053308;28;20044;-53
2023/09/09 09:20:33;;;;;;;10.18;8.52;;;28.40;65.00;;;;;;5053068;28;20037;-57
2023/09/09 09:23:03;;;;;;;9.23;8.20;;;28.40;65.40;;;;;;5048839;28;20428;-55
2023/09/09 09:25:37;;;;;;;10.90;10.00;;;28.60;65.30;;;;;;5050453;28;20055;-55
2023/09/09 09:28:05;;;;;;;10.60;8.77;;;28.70;63.70;;;;;;5052127;28;20090;-54
2023/09/09 09:30:38;;;;;;;10.15;9.25;;;28.60;65.30;;;;;;5046367;28;20024;-52
2023/09/09 09:33:05;;;;;;;9.45;8.48;;;28.60;65.60;;;;;;5051438;28;20422;-55
2023/09/09 09:35:36;;;;;;;12.05;8.73;;;28.80;66.10;;;;;;5035389;28;20482;-58
2023/09/09 09:38:09;;;;;;;14.40;12.95;;;28.90;65.30;;;;;;5053338;28;20017;-57
2023/09/09 09:40:40;;;;;;;10.13;9.13;;;28.80;64.50;;;;;;5034648;28;20039;-54
2023/09/09 09:43:20;;;;;;;11.20;10.10;;;28.90;66.00;;;;;;5040291;28;20435;-55
2023/09/09 09:45:49;;;;;;;10.70;9.27;;;28.70;66.80;;;;;;5043316;28;20111;-52
2023/09/09 09:48:30;;;;;;;12.60;11.35;;;28.90;65.40;;;;;;5044574;28;20033;-55
2023/09/09 09:51:04;;;;;;;11.32;10.23;;;28.90;64.00;;;;;;5033009;28;20069;-55
2023/09/09 09:53:35;;;;;;;12.48;10.02;;;28.90;64.40;;;;;;5032750;28;20052;-56
2023/09/09 09:56:04;;;;;;;10.23;9.38;;;29.10;65.10;;;;;;5032734;28;20026;-52
2023/09/09 09:58:36;;;;;;;10.25;9.25;;;29.10;65.00;;;;;;5018515;28;20040;-57
2023/09/09 10:01:06;;;;;;;10.88;9.85;;;29.30;63.60;;;;;;5051910;28;20025;-57
2023/09/09 10:03:46;;;;;;;14.98;9.48;;;29.30;64.40;;;;;;5040358;28;20454;-58
2023/09/09 10:06:19;;;;;;;10.95;9.85;;;29.40;64.30;;;;;;5032857;28;20029;-57
2023/09/09 10:08:58;;;;;;;10.80;9.63;;;29.30;62.60;;;;;;5050576;28;20086;-52
2023/09/09 10:11:28;;;;;;;;;;;29.40;65.60;;;;;;5051700;28;20040;-53
2023/09/09 10:14:16;;;;;;;10.32;9.13;;;29.40;65.50;;;;;;5057274;28;19912;-55
2023/09/09 10:16:51;;;;;;;11.73;10.70;;;29.40;65.00;;;;;;5045941;28;20108;-55
2023/09/09 10:19:22;;;;;;;13.95;10.02;;;29.30;64.10;;;;;;5050348;28;20393;-58
2023/09/09 10:21:51;;;;;;;10.68;9.68;;;29.30;64.70;;;;;;5014680;28;20072;-56
2023/09/09 10:24:19;;;;;;;10.88;9.88;;;29.40;65.50;;;;;;5032229;28;20061;-55
2023/09/09 10:26:51;;;;;;;11.07;9.93;;;29.40;64.20;;;;;;5032872;28;20100;-55
2023/09/09 10:29:19;;;;;;;11.35;10.30;;;29.60;64.60;;;;;;5032758;28;20041;-56
2023/09/09 10:31:57;;;;;;;10.27;9.25;;;29.60;66.10;;;;;;5032630;28;20041;-57
2023/09/09 10:34:24;;;;;;;10.57;9.45;;;29.60;64.90;;;;;;5032654;28;20022;-58
2023/09/09 10:36:56;;;;;;;9.95;8.98;;;29.60;64.00;;;;;;5042850;28;20112;-58
2023/09/09 10:39:38;;;;;;;9.75;8.75;;;29.60;64.00;;;;;;5052380;28;20025;-58
2023/09/09 10:42:08;;;;;;;11.13;9.23;;;29.60;63.50;;;;;;5052081;28;20456;-56
2023/09/09 10:44:38;;;;;;;8.80;7.90;;;29.70;66.50;;;;;;5039046;28;20038;-57
2023/09/09 10:47:16;;;;;;;9.70;7.72;;;29.60;62.60;;;;;;5032433;28;20032;-58
2023/09/09 10:50:04;;;;;;;9.63;8.65;;;29.70;63.30;;;;;;5032615;28;20029;-56
2023/09/09 10:52:37;;;;;;;10.43;9.32;;;29.70;63.80;;;;;;5031954;28;20041;-57
2023/09/09 10:55:14;;;;;;;10.00;7.75;;;29.80;63.90;;;;;;5032187;28;20030;-55
2023/09/09 10:57:42;;;;;;;14.50;9.40;;;29.90;65.60;;;;;;5015223;28;20098;-58
2023/09/09 11:00:39;;;;;;;10.38;8.63;;;29.60;61.00;;;;;;5032408;28;20026;-58
2023/09/09 11:03:31;;;;;;;9.65;8.73;;;29.60;62.80;;;;;;5022250;28;20052;-58
2023/09/09 11:06:10;;;;;;;9.30;8.15;;;29.60;62.70;;;;;;5032577;28;20109;-58
2023/09/09 11:08:45;;;;;;;9.45;8.15;;;29.60;62.70;;;;;;5031508;28;20021;-58
2023/09/09 11:11:17;;;;;;;8.95;8.05;;;29.80;63.60;;;;;;5050388;28;20499;-56
2023/09/09 11:13:55;;;;;;;9.07;7.93;;;29.90;63.30;;;;;;5061179;28;20029;-58
2023/09/09 11:16:40;;;;;;;10.05;8.48;;;30.10;63.40;;;;;;5041319;28;20465;-58
2023/09/09 11:19:17;;;;;;;8.50;7.72;;;30.00;60.60;;;;;;5038506;28;20458;-57
2023/09/09 11:21:55;;;;;;;9.35;7.57;;;30.00;61.20;;;;;;5038256;28;20020;-59
2023/09/09 11:24:24;;;;;;;10.85;8.10;;;30.00;60.80;;;;;;5051813;28;20501;-58
2023/09/09 11:26:55;;;;;;;10.57;8.15;;;30.00;59.90;;;;;;5043428;28;20103;-58
2023/09/09 11:29:24;;;;;;;8.52;7.72;;;30.00;60.30;;;;;;5048673;28;20052;-58
2023/09/09 11:31:53;;;;;;;9.77;8.80;;;29.80;60.80;;;;;;5048921;28;20028;-58
2023/09/09 11:34:33;;;;;;;9.10;8.20;;;30.00;61.70;;;;;;5044763;28;20327;-57
2023/09/09 11:37:04;;;;;;;8.68;7.78;;;30.10;60.70;;;;;;5053541;28;20454;-59
2023/09/09 11:39:46;;;;;;;8.27;7.45;;;30.10;61.00;;;;;;5055045;28;20025;-59
2023/09/09 11:42:23;;;;;;;9.65;8.30;;;29.90;60.00;;;;;;5037976;28;20461;-58
2023/09/09 11:44:50;;;;;;;10.45;7.35;;;30.00;60.70;;;;;;5053421;28;20033;-57
2023/09/09 11:47:18;;;;;;;9.05;7.82;;;30.00;60.40;;;;;;5055046;28;20021;-57
2023/09/09 11:49:48;;;;;;;9.15;8.25;;;30.00;59.20;;;;;;5051038;28;20031;-59
2023/09/09 11:52:19;;;;;;;8.90;7.68;;;30.10;59.60;;;;;;5037701;28;20099;-58
2023/09/09 11:54:57;;;;;;;12.27;7.93;;;30.30;59.90;;;;;;5035115;28;20490;-58
2023/09/09 11:57:33;;;;;;;9.45;8.55;;;30.40;60.60;;;;;;5063491;28;20041;-58
2023/09/09 12:00:00;;;;;;;7.68;7.03;;;30.30;59.30;;;;;;5057076;28;20045;-59
2023/09/09 12:02:31;;;;;;;8.60;7.80;;;30.30;58.80;;;;;;5047434;28;20069;-57
2023/09/09 12:05:00;;;;;;;9.60;8.07;;;30.20;58.60;;;;;;5043190;28;20040;-57
2023/09/09 12:07:36;;;;;;;8.70;7.75;;;30.20;60.50;;;;;;5053738;28;20029;-58
2023/09/09 12:10:14;;;;;;;8.77;7.97;;;30.10;59.90;;;;;;5054262;28;20051;-58
2023/09/09 12:12:47;;;;;;;9.23;7.85;;;30.10;57.80;;;;;;5035490;28;20030;-58
2023/09/09 12:15:18;;;;;;;11.13;8.10;;;29.80;59.10;;;;;;5034675;28;20013;-58
2023/09/09 12:17:49;;;;;;;8.13;7.32;;;29.60;58.50;;;;;;5034489;28;20022;-59
2023/09/09 12:20:18;;;;;;;8.25;7.45;;;29.50;59.20;;;;;;5034679;28;20039;-57
2023/09/09 12:22:50;;;;;;;8.70;7.22;;;29.60;59.80;;;;;;5034512;28;20029;-58
2023/09/09 12:25:34;;;;;;;9.38;8.45;;;29.70;60.70;;;;;;5035066;28;20061;-57
2023/09/09 12:28:03;;;;;;;8.85;7.90;;;29.70;60.30;;;;;;5034745;28;20470;-54
2023/09/09 12:30:49;;;;;;;8.95;8.13;;;29.70;60.30;;;;;;5034645;28;20078;-59
2023/09/09 12:33:19;;;;;;;9.70;7.82;;;29.60;61.40;;;;;;5053347;28;20052;-58
2023/09/09 12:36:15;;;;;;;9.15;8.27;;;29.60;60.30;;;;;;5037342;28;20029;-55
2023/09/09 12:38:52;;;;;;;10.90;7.75;;;29.40;60.00;;;;;;5036944;28;20022;-57
2023/09/09 12:41:22;;;;;;;9.43;8.45;;;29.30;61.00;;;;;;5034423;28;20592;-56
2023/09/09 12:43:51;;;;;;;11.32;8.32;;;29.30;60.60;;;;;;5034626;28;20386;-52
2023/09/09 12:46:36;;;;;;;9.27;7.78;;;29.30;61.20;;;;;;5034654;28;20033;-54
2023/09/09 12:49:05;;;;;;;8.80;7.97;;;29.30;61.90;;;;;;5033559;28;20104;-58
2023/09/09 12:51:37;;;;;;;9.45;8.55;;;29.00;60.90;;;;;;5034133;28;20539;-59
2023/09/09 12:54:05;;;;;;;12.50;8.52;;;28.80;61.70;;;;;;5016640;28;20032;-56